createdAt,value
2023-02-28T00:00:47.131Z,13.00
2023-02-28T00:05:58.400Z,13.70
2023-02-28T00:11:09.514Z,11.50
2023-02-28T00:16:19.340Z,17.30
2023-02-28T00:21:27.246Z,15.80
2023-02-28T00:26:34.815Z,16.00
2023-02-28T00:31:42.071Z,11.20
2023-02-28T00:36:51.193Z,16.40
2023-02-28T00:41:58.572Z,14.20
2023-02-28T00:47:06.229Z,13.20
2023-02-28T00:52:13.608Z,14.00
2023-02-28T01:02:26.987Z,13.30
2023-02-28T01:07:34.652Z,11.40
2023-02-28T01:12:42.046Z,10.70
2023-02-28T01:17:49.471Z,7.50
2023-02-28T01:31:19.398Z,10.00
2023-02-28T01:36:27.610Z,11.30
2023-02-28T01:41:37.138Z,10.20
2023-02-28T01:46:44.482Z,11.60
2023-02-28T01:51:56.964Z,10.50
2023-02-28T01:57:08.442Z,11.40
2023-02-28T02:02:16.376Z,7.10
2023-02-28T02:07:25.867Z,9.10
2023-02-28T02:12:50.087Z,9.80
2023-02-28T02:18:04.369Z,12.20
2023-02-28T02:23:41.283Z,12.80
2023-02-28T02:29:21.508Z,11.20
2023-02-28T02:34:45.802Z,11.70
2023-02-28T02:40:02.064Z,9.90
2023-02-28T02:45:15.508Z,12.50
2023-02-28T02:50:28.518Z,14.70
2023-02-28T02:55:41.842Z,16.20
2023-02-28T03:00:55.014Z,17.00
2023-02-28T03:06:04.060Z,19.00
2023-02-28T03:11:17.046Z,24.30
2023-02-28T03:16:55.640Z,21.70
2023-02-28T03:22:24.603Z,20.50
2023-02-28T03:27:39.910Z,21.70
2023-02-28T03:32:55.284Z,19.50
2023-02-28T03:38:07.807Z,24.80
2023-02-28T03:43:20.625Z,20.30
2023-02-28T03:48:34.293Z,21.30
2023-02-28T03:53:45.653Z,15.20
2023-02-28T03:58:58.157Z,17.30
2023-02-28T04:04:06.100Z,14.90
2023-02-28T04:09:16.305Z,17.90
2023-02-28T04:14:24.272Z,15.20
2023-02-28T04:19:31.739Z,18.50
2023-02-28T04:24:42.767Z,18.60
2023-02-28T04:29:50.031Z,22.60
2023-02-28T04:40:04.092Z,17.40
2023-02-28T04:45:13.619Z,25.40
2023-02-28T04:50:21.491Z,16.50
2023-02-28T04:55:28.660Z,23.70
2023-02-28T05:05:42.057Z,18.50
2023-02-28T05:10:49.936Z,15.30
2023-02-28T05:15:57.642Z,21.10
2023-02-28T05:21:05.493Z,16.60
2023-02-28T05:26:12.799Z,20.30
2023-02-28T05:31:20.999Z,19.40
2023-02-28T05:36:28.914Z,36.20
2023-02-28T05:41:36.471Z,31.10
2023-02-28T05:46:43.890Z,23.90
2023-02-28T05:51:53.398Z,22.50
2023-02-28T05:57:00.988Z,24.50
2023-02-28T06:02:08.736Z,19.90
2023-02-28T06:07:16.474Z,27.10
2023-02-28T06:12:24.252Z,19.60
2023-02-28T06:17:31.902Z,21.80
2023-02-28T06:22:39.478Z,15.90
2023-02-28T06:27:46.930Z,20.00
2023-02-28T06:32:54.532Z,18.00
2023-02-28T06:38:01.883Z,18.40
2023-02-28T06:43:09.483Z,15.40
2023-02-28T06:48:16.959Z,177.40
2023-02-28T06:53:24.769Z,51.20
2023-02-28T06:58:33.302Z,28.30
2023-02-28T07:03:40.816Z,23.70
2023-02-28T07:08:48.815Z,27.40
2023-02-28T07:13:57.546Z,22.30
2023-02-28T07:19:05.083Z,29.20
2023-02-28T07:24:12.980Z,29.90
2023-02-28T07:29:20.642Z,29.30
2023-02-28T07:34:28.365Z,29.00
2023-02-28T07:39:35.637Z,23.90
2023-02-28T07:49:49.336Z,17.10
2023-02-28T07:54:56.892Z,12.40
2023-02-28T08:00:04.733Z,11.90
2023-02-28T08:05:13.376Z,12.80
2023-02-28T08:10:21.360Z,11.80
2023-02-28T08:15:29.663Z,11.40
2023-02-28T08:20:36.975Z,12.80
2023-02-28T08:30:50.336Z,16.10
2023-02-28T08:35:58.509Z,12.30
2023-02-28T08:41:10.091Z,8.50
2023-02-28T08:46:17.677Z,9.60
2023-02-28T08:51:28.831Z,8.40
2023-02-28T08:56:37.678Z,9.70
2023-02-28T09:01:45.997Z,9.40
2023-02-28T09:06:53.686Z,7.30
2023-02-28T09:12:01.678Z,8.80
2023-02-28T09:17:09.065Z,8.80
2023-02-28T09:22:17.018Z,9.40
2023-02-28T09:27:24.306Z,7.90
2023-02-28T09:32:32.457Z,5.00
2023-02-28T09:37:40.108Z,9.40
2023-02-28T09:42:50.952Z,8.30
2023-02-28T09:48:03.775Z,8.40
2023-02-28T09:53:21.877Z,11.00
2023-02-28T09:58:34.377Z,10.50
2023-02-28T10:03:47.679Z,11.00
2023-02-28T10:09:04.033Z,11.00
2023-02-28T10:14:18.809Z,10.20
2023-02-28T10:19:33.830Z,9.30
2023-02-28T10:24:44.218Z,8.30
2023-02-28T10:29:53.863Z,9.90
2023-02-28T10:35:09.020Z,9.20
2023-02-28T10:40:33.057Z,11.50
2023-02-28T10:45:40.672Z,8.40
2023-02-28T10:50:54.897Z,10.00
2023-02-28T10:56:05.289Z,16.20
2023-02-28T11:01:18.465Z,9.10
2023-02-28T11:06:29.739Z,10.00
2023-02-28T11:11:49.095Z,10.10
2023-02-28T11:16:59.825Z,13.60
2023-02-28T11:22:09.587Z,6.70
2023-02-28T11:27:42.742Z,9.80
2023-02-28T11:32:54.102Z,10.70
2023-02-28T11:38:03.113Z,11.70
2023-02-28T11:43:25.020Z,9.80
2023-02-28T11:48:43.109Z,9.60
2023-02-28T11:54:08.553Z,8.90
2023-02-28T11:59:38.569Z,7.30
2023-02-28T12:04:57.012Z,7.90
2023-02-28T12:10:19.244Z,9.60
2023-02-28T12:15:54.830Z,9.80
2023-02-28T12:21:10.333Z,9.20
2023-02-28T12:26:28.349Z,8.40
2023-02-28T12:31:42.864Z,6.60
2023-02-28T12:36:52.258Z,7.70
2023-02-28T12:42:04.783Z,12.00
2023-02-28T12:47:16.860Z,9.00
2023-02-28T12:52:34.406Z,9.30
2023-02-28T12:57:51.096Z,10.10
2023-02-28T13:03:34.789Z,10.90
2023-02-28T13:09:15.890Z,10.00
2023-02-28T13:14:31.672Z,10.80
2023-02-28T13:19:41.547Z,11.20
2023-02-28T13:24:52.599Z,9.60
2023-02-28T13:30:00.594Z,8.70
2023-02-28T13:35:37.037Z,9.70
2023-02-28T13:40:44.543Z,7.60
2023-02-28T13:46:15.374Z,12.80
2023-02-28T13:51:46.252Z,8.90
2023-02-28T13:57:04.005Z,11.30
2023-02-28T14:02:41.672Z,7.80
2023-02-28T14:07:53.535Z,6.60
2023-02-28T14:13:04.282Z,8.00
2023-02-28T14:18:22.471Z,8.30
2023-02-28T14:23:52.413Z,6.70
2023-02-28T14:29:17.018Z,6.30
2023-02-28T14:34:40.219Z,12.00
2023-02-28T14:39:48.825Z,10.00
2023-02-28T14:44:59.499Z,8.60
2023-02-28T14:50:21.127Z,11.30
2023-02-28T14:55:31.766Z,12.50
2023-02-28T15:00:49.295Z,8.60
2023-02-28T15:11:06.660Z,12.60
2023-02-28T15:16:18.150Z,10.10
2023-02-28T15:21:29.519Z,8.80
2023-02-28T15:26:41.039Z,12.50
2023-02-28T15:31:57.345Z,11.30
2023-02-28T15:37:09.238Z,11.00
2023-02-28T15:42:21.045Z,12.30
2023-02-28T15:47:30.516Z,9.80
2023-02-28T15:52:43.294Z,11.40
2023-02-28T15:57:53.710Z,10.20
2023-02-28T16:03:01.640Z,10.60
2023-02-28T16:08:17.932Z,10.00
2023-02-28T16:13:25.560Z,11.80
2023-02-28T16:28:27.959Z,10.00
2023-02-28T16:33:36.467Z,10.70
2023-02-28T16:38:43.812Z,9.90
2023-02-28T16:43:53.841Z,11.10
2023-02-28T16:49:01.296Z,12.20
2023-02-28T16:54:09.071Z,11.40
2023-02-28T16:59:20.606Z,11.80
2023-02-28T17:04:29.188Z,9.70
2023-02-28T17:09:42.443Z,15.30
2023-02-28T17:14:51.154Z,10.20
2023-02-28T17:19:58.831Z,10.50
2023-02-28T17:25:06.944Z,11.10
2023-02-28T17:30:19.677Z,11.60
2023-02-28T17:35:27.923Z,10.40
2023-02-28T17:40:35.697Z,10.30
2023-02-28T17:45:43.297Z,12.80
2023-02-28T17:50:50.953Z,11.90
2023-02-28T17:55:59.280Z,12.80
2023-02-28T18:01:07.609Z,11.00
2023-02-28T18:06:21.388Z,12.00
2023-02-28T18:11:42.294Z,11.40
2023-02-28T18:16:50.423Z,12.10
2023-02-28T18:21:57.769Z,10.00
2023-02-28T18:27:06.939Z,10.70
2023-02-28T18:32:14.364Z,14.50
2023-02-28T18:37:21.919Z,15.90
2023-02-28T18:42:29.495Z,18.40
2023-02-28T18:47:37.890Z,25.10
2023-02-28T18:52:45.603Z,22.20
2023-02-28T18:57:53.481Z,20.10
2023-02-28T19:03:01.779Z,20.80
2023-02-28T19:08:09.765Z,21.60
2023-02-28T19:13:17.204Z,28.20
2023-02-28T19:18:24.702Z,30.80
2023-02-28T19:28:41.004Z,18.60
2023-02-28T19:33:48.733Z,25.00
2023-02-28T19:38:55.946Z,26.70
2023-02-28T19:44:03.544Z,29.70
2023-02-28T19:49:10.998Z,25.90
2023-02-28T19:54:18.455Z,30.20
2023-02-28T19:59:38.287Z,34.30
2023-02-28T20:04:50.187Z,29.20
2023-02-28T20:09:57.797Z,31.00
2023-02-28T20:15:05.607Z,23.20
2023-02-28T20:20:14.630Z,34.70
2023-02-28T20:25:22.825Z,23.70
2023-02-28T20:30:30.408Z,24.40
2023-02-28T20:35:38.336Z,27.40
2023-02-28T20:40:45.600Z,32.60
2023-02-28T20:51:04.470Z,42.80
2023-02-28T20:56:16.284Z,48.20
2023-02-28T21:01:27.189Z,48.50
2023-02-28T21:06:37.218Z,49.70
2023-02-28T21:11:44.569Z,51.10
2023-02-28T21:16:51.956Z,50.10
2023-02-28T21:21:59.343Z,56.80
2023-02-28T21:27:07.342Z,57.70
2023-02-28T21:32:15.591Z,43.50
2023-02-28T21:37:23.049Z,59.90
2023-02-28T21:42:31.128Z,46.60
2023-02-28T21:47:38.590Z,69.20
2023-02-28T21:52:46.591Z,72.70
2023-02-28T21:57:54.963Z,61.10
2023-02-28T22:03:03.808Z,70.20
2023-02-28T22:08:11.209Z,79.50
2023-02-28T22:13:19.942Z,74.10
2023-02-28T22:18:27.323Z,92.20
2023-02-28T22:23:35.111Z,85.80
2023-02-28T22:28:43.036Z,93.20
2023-02-28T22:33:54.402Z,84.50
2023-02-28T22:39:02.541Z,88.80
2023-02-28T22:44:10.277Z,60.60
2023-02-28T22:49:17.764Z,48.50
2023-02-28T22:54:25.041Z,52.50
2023-02-28T22:59:32.300Z,47.90
2023-02-28T23:09:45.388Z,60.00
2023-02-28T23:14:52.773Z,70.80
2023-02-28T23:20:00.360Z,85.10
2023-02-28T23:25:09.471Z,90.60
2023-02-28T23:30:17.906Z,84.10
2023-02-28T23:35:25.547Z,92.10
2023-02-28T23:40:33.190Z,79.40
2023-02-28T23:45:41.211Z,81.80
2023-02-28T23:50:48.592Z,76.10
2023-02-28T23:55:56.034Z,96.30
